KLPC/LPC METAR and TAF weather

Enter ICAO airport designator
Station Type Date Time Source
KLPC METAR 2021/07/26 14:01 UTC NOAA

KLPC 261401Z AUTO 00000KT 1 1/4SM BR 13/13 A2994 RMK AO2 $


Station Type Date Time Source
KLPC Decoded METAR 2021/07/26 14:01 UTC NOAA

Lompoc, Lompoc Airport, CA, United States (KLPC) 34-40N 120-28W
Jul 26, 2021 - 10:01 AM EDT / 2021.07.26 1401 UTC
Wind: Calm:0
Visibility: 1 1/4 mile(s):0
Weather: mist
Temperature: 55 F (13 C)
Dew Point: 55 F (13 C)
Relative Humidity: 100%
Pressure (altimeter): 29.94 in. Hg (1013 hPa)
ob: KLPC 261401Z AUTO 00000KT 1 1/4SM BR 13/13 A2994 RMK AO2
cycle: 14

Station Type Date Time Source
KLPC TAF UTC NOAA

Error!

Example: see airport list